Terminal Aerodrome Forecast
Issued by NWS Sterling, VA

Current Version | Previous Version | Graphics & Text | Print | Product List | Glossary On
Versions: 1 2 3 4 5 6 7 8 9 10 11 12 13 14 15 16 17 18 19 20 21 22 23 24 25 26 27
918
FTUS41 KLWX 252127 AAA
TAFIAD
TAF AMD
KIAD 252127Z 2521/2624 25006KT P6SM FEW250
     FM260000 18004KT P6SM FEW250
     FM260800 00000KT P6SM SCT100
     FM261100 00000KT P6SM BKN080
     FM261900 20006KT P6SM BKN060=

USA.gov is the U.S. government's official web portal to all federal, state and local government web resources and services.